sensor_id;sensor_type;location;lat;lon;timestamp;pressure;altitude;pressure_sealevel;temperature;humidity
32735;BME280;19112;51.076;3.706;2023-03-25T00:01:03;99942.63;;;10.82;66.95
32735;BME280;19112;51.076;3.706;2023-03-25T00:03:34;99894.69;;;10.44;67.13
32735;BME280;19112;51.076;3.706;2023-03-25T00:06:05;100195.22;;;12.03;67.70
32735;BME280;19112;51.076;3.706;2023-03-25T00:08:31;100115.72;;;11.67;67.89
32735;BME280;19112;51.076;3.706;2023-03-25T00:11:00;100235.00;;;12.20;68.57
32735;BME280;19112;51.076;3.706;2023-03-25T00:13:27;100209.50;;;12.18;69.02
32735;BME280;19112;51.076;3.706;2023-03-25T00:15:56;100207.72;;;12.15;69.71
32735;BME280;19112;51.076;3.706;2023-03-25T00:18:25;100169.59;;;11.90;69.94
32735;BME280;19112;51.076;3.706;2023-03-25T00:20:54;100207.75;;;12.18;70.05
32735;BME280;19112;51.076;3.706;2023-03-25T00:23:21;100052.75;;;11.23;70.27
32735;BME280;19112;51.076;3.706;2023-03-25T00:25:48;100099.44;;;11.38;70.59
32735;BME280;19112;51.076;3.706;2023-03-25T00:28:15;100075.47;;;11.21;70.96
32735;BME280;19112;51.076;3.706;2023-03-25T00:30:43;100170.31;;;11.82;71.16
32735;BME280;19112;51.076;3.706;2023-03-25T00:33:10;100174.47;;;11.70;71.00
32735;BME280;19112;51.076;3.706;2023-03-25T00:35:39;100051.44;;;10.99;71.60
32735;BME280;19112;51.076;3.706;2023-03-25T00:38:12;99859.53;;;9.90;71.39
32735;BME280;19112;51.076;3.706;2023-03-25T00:40:39;100124.06;;;11.44;71.83
32735;BME280;19112;51.076;3.706;2023-03-25T00:43:06;100113.53;;;11.43;71.71
32735;BME280;19112;51.076;3.706;2023-03-25T00:45:33;100213.78;;;12.11;71.68
32735;BME280;19112;51.076;3.706;2023-03-25T00:47:59;100208.44;;;12.06;71.87
32735;BME280;19112;51.076;3.706;2023-03-25T00:50:25;100204.84;;;12.01;71.98
32735;BME280;19112;51.076;3.706;2023-03-25T00:52:51;100165.53;;;11.61;72.52
32735;BME280;19112;51.076;3.706;2023-03-25T00:55:20;100055.59;;;10.87;72.38
32735;BME280;19112;51.076;3.706;2023-03-25T00:57:46;100100.09;;;11.26;72.65
32735;BME280;19112;51.076;3.706;2023-03-25T01:00:15;100212.47;;;11.86;72.75
32735;BME280;19112;51.076;3.706;2023-03-25T01:02:42;99966.41;;;10.44;72.54
32735;BME280;19112;51.076;3.706;2023-03-25T01:05:09;100165.69;;;11.70;72.38
32735;BME280;19112;51.076;3.706;2023-03-25T01:07:37;100114.41;;;11.42;72.49
32735;BME280;19112;51.076;3.706;2023-03-25T01:10:04;100092.22;;;11.26;72.57
32735;BME280;19112;51.076;3.706;2023-03-25T01:12:30;100206.44;;;11.92;72.75
32735;BME280;19112;51.076;3.706;2023-03-25T01:14:56;99997.78;;;10.85;72.43
32735;BME280;19112;51.076;3.706;2023-03-25T01:17:22;99520.78;;;8.11;72.52
32735;BME280;19112;51.076;3.706;2023-03-25T01:19:48;100060.34;;;11.08;72.38
32735;BME280;19112;51.076;3.706;2023-03-25T01:22:14;99902.41;;;10.36;72.40
32735;BME280;19112;51.076;3.706;2023-03-25T01:24:39;100175.41;;;11.72;72.80
32735;BME280;19112;51.076;3.706;2023-03-25T01:27:05;100155.25;;;11.73;72.62
32735;BME280;19112;51.076;3.706;2023-03-25T01:29:31;100105.81;;;11.50;72.79
32735;BME280;19112;51.076;3.706;2023-03-25T01:31:57;100107.47;;;11.47;73.04
32735;BME280;19112;51.076;3.706;2023-03-25T01:34:23;100192.72;;;12.10;73.28
32735;BME280;19112;51.076;3.706;2023-03-25T01:36:49;100047.53;;;11.26;73.43
32735;BME280;19112;51.076;3.706;2023-03-25T01:39:17;100099.78;;;11.58;73.95
32735;BME280;19112;51.076;3.706;2023-03-25T01:41:46;99910.50;;;10.48;73.98
32735;BME280;19112;51.076;3.706;2023-03-25T01:46:39;100107.66;;;11.56;75.06
32735;BME280;19112;51.076;3.706;2023-03-25T01:49:35;100106.72;;;11.55;74.81
32735;BME280;19112;51.076;3.706;2023-03-25T01:52:15;100083.94;;;11.54;74.65
32735;BME280;19112;51.076;3.706;2023-03-25T01:54:43;100168.72;;;11.91;74.39
32735;BME280;19112;51.076;3.706;2023-03-25T01:57:12;100096.03;;;11.45;74.04
32735;BME280;19112;51.076;3.706;2023-03-25T01:59:42;99876.94;;;10.29;73.76
32735;BME280;19112;51.076;3.706;2023-03-25T02:02:10;100105.28;;;11.73;73.85
32735;BME280;19112;51.076;3.706;2023-03-25T02:05:19;100169.88;;;12.09;73.08
32735;BME280;19112;51.076;3.706;2023-03-25T02:07:48;100173.31;;;12.03;72.60
32735;BME280;19112;51.076;3.706;2023-03-25T02:10:15;99716.22;;;9.42;71.78
32735;BME280;19112;51.076;3.706;2023-03-25T02:12:41;99919.50;;;10.63;71.22
32735;BME280;19112;51.076;3.706;2023-03-25T02:15:10;99745.44;;;9.64;71.18
32735;BME280;19112;51.076;3.706;2023-03-25T02:17:52;100145.53;;;11.69;71.23
32735;BME280;19112;51.076;3.706;2023-03-25T02:20:48;100169.50;;;11.86;72.64
32735;BME280;19112;51.076;3.706;2023-03-25T02:27:00;100173.88;;;11.84;73.16
32735;BME280;19112;51.076;3.706;2023-03-25T02:36:05;100172.59;;;11.63;73.59
32735;BME280;19112;51.076;3.706;2023-03-25T02:38:59;100082.47;;;11.19;73.58
32735;BME280;19112;51.076;3.706;2023-03-25T02:47:18;99851.38;;;9.75;72.74
32735;BME280;19112;51.076;3.706;2023-03-25T02:50:06;100170.19;;;11.75;72.81
32735;BME280;19112;51.076;3.706;2023-03-25T02:52:44;100156.91;;;11.68;72.80
32735;BME280;19112;51.076;3.706;2023-03-25T02:55:14;100167.75;;;11.85;72.96
32735;BME280;19112;51.076;3.706;2023-03-25T02:57:45;100169.41;;;11.81;72.75
32735;BME280;19112;51.076;3.706;2023-03-25T03:00:16;99891.91;;;10.35;72.67
32735;BME280;19112;51.076;3.706;2023-03-25T03:03:09;99863.06;;;10.36;72.33
32735;BME280;19112;51.076;3.706;2023-03-25T03:05:50;99998.34;;;11.17;72.51
32735;BME280;19112;51.076;3.706;2023-03-25T03:15:43;100158.38;;;12.00;71.91
32735;BME280;19112;51.076;3.706;2023-03-25T03:20:37;100151.19;;;11.92;72.28
32735;BME280;19112;51.076;3.706;2023-03-25T03:26:20;100146.00;;;11.93;71.98
32735;BME280;19112;51.076;3.706;2023-03-25T03:29:13;99954.03;;;10.86;71.73
32735;BME280;19112;51.076;3.706;2023-03-25T03:31:51;99943.31;;;10.72;71.65
32735;BME280;19112;51.076;3.706;2023-03-25T03:34:56;100119.53;;;11.83;71.58
32735;BME280;19112;51.076;3.706;2023-03-25T03:37:37;100085.69;;;11.55;71.60
32735;BME280;19112;51.076;3.706;2023-03-25T03:40:09;100053.78;;;11.31;70.98
32735;BME280;19112;51.076;3.706;2023-03-25T03:42:44;100154.78;;;11.95;70.77
32735;BME280;19112;51.076;3.706;2023-03-25T03:45:26;99897.25;;;10.41;69.69
32735;BME280;19112;51.076;3.706;2023-03-25T03:47:57;100101.34;;;11.48;69.18
32735;BME280;19112;51.076;3.706;2023-03-25T03:50:49;100169.69;;;11.96;69.10
32735;BME280;19112;51.076;3.706;2023-03-25T03:53:33;100149.13;;;11.74;68.53
32735;BME280;19112;51.076;3.706;2023-03-25T03:56:10;100182.81;;;11.93;68.37
32735;BME280;19112;51.076;3.706;2023-03-25T03:58:40;100165.31;;;11.95;68.65
32735;BME280;19112;51.076;3.706;2023-03-25T04:01:39;99962.84;;;10.88;68.25
32735;BME280;19112;51.076;3.706;2023-03-25T04:04:17;99922.81;;;10.53;67.82
32735;BME280;19112;51.076;3.706;2023-03-25T04:07:00;100200.25;;;11.88;68.02
32735;BME280;19112;51.076;3.706;2023-03-25T04:10:13;100192.31;;;11.87;68.06
32735;BME280;19112;51.076;3.706;2023-03-25T04:12:50;100198.22;;;11.73;68.12
32735;BME280;19112;51.076;3.706;2023-03-25T04:15:17;100183.69;;;11.45;68.33
32735;BME280;19112;51.076;3.706;2023-03-25T04:17:50;100077.72;;;10.99;68.70
32735;BME280;19112;51.076;3.706;2023-03-25T04:20:22;100187.91;;;11.39;68.95
32735;BME280;19112;51.076;3.706;2023-03-25T04:22:51;100072.25;;;10.89;69.01
32735;BME280;19112;51.076;3.706;2023-03-25T04:25:17;100019.22;;;10.61;69.36
32735;BME280;19112;51.076;3.706;2023-03-25T04:27:47;100119.19;;;11.17;69.21
32735;BME280;19112;51.076;3.706;2023-03-25T04:30:18;100191.59;;;11.47;69.43
32735;BME280;19112;51.076;3.706;2023-03-25T04:32:46;99882.44;;;9.58;69.43
32735;BME280;19112;51.076;3.706;2023-03-25T04:35:17;99990.59;;;9.90;69.38
32735;BME280;19112;51.076;3.706;2023-03-25T04:37:45;99869.31;;;9.55;69.16
32735;BME280;19112;51.076;3.706;2023-03-25T04:40:13;99891.28;;;9.63;69.40
32735;BME280;19112;51.076;3.706;2023-03-25T04:42:41;100207.16;;;11.38;69.50
32735;BME280;19112;51.076;3.706;2023-03-25T04:45:08;100142.16;;;10.82;69.43
32735;BME280;19112;51.076;3.706;2023-03-25T04:47:39;100225.16;;;11.18;69.78
32735;BME280;19112;51.076;3.706;2023-03-25T04:50:23;99830.59;;;9.01;69.63
32735;BME280;19112;51.076;3.706;2023-03-25T04:52:50;100214.59;;;11.15;70.00
32735;BME280;19112;51.076;3.706;2023-03-25T04:55:18;100022.59;;;10.15;70.02
32735;BME280;19112;51.076;3.706;2023-03-25T04:57:49;100134.19;;;10.79;70.03
32735;BME280;19112;51.076;3.706;2023-03-25T05:00:19;100029.56;;;10.13;69.75
32735;BME280;19112;51.076;3.706;2023-03-25T05:02:48;99961.53;;;9.80;69.76
32735;BME280;19112;51.076;3.706;2023-03-25T05:05:17;100222.59;;;11.21;69.97
32735;BME280;19112;51.076;3.706;2023-03-25T05:07:49;100148.22;;;10.81;69.66
32735;BME280;19112;51.076;3.706;2023-03-25T05:10:20;100217.44;;;11.24;70.03
32735;BME280;19112;51.076;3.706;2023-03-25T05:12:47;99964.84;;;9.71;69.91
32735;BME280;19112;51.076;3.706;2023-03-25T05:15:14;99997.59;;;9.90;69.86
32735;BME280;19112;51.076;3.706;2023-03-25T05:17:42;100223.56;;;11.24;69.80
32735;BME280;19112;51.076;3.706;2023-03-25T05:20:09;100241.00;;;11.21;69.72
32735;BME280;19112;51.076;3.706;2023-03-25T05:22:37;100224.31;;;11.19;69.71
32735;BME280;19112;51.076;3.706;2023-03-25T05:25:08;99980.50;;;9.68;69.68
32735;BME280;19112;51.076;3.706;2023-03-25T05:27:35;100188.75;;;10.92;69.89
32735;BME280;19112;51.076;3.706;2023-03-25T05:30:02;100161.22;;;10.75;69.95
32735;BME280;19112;51.076;3.706;2023-03-25T05:32:29;100235.75;;;11.21;69.82
32735;BME280;19112;51.076;3.706;2023-03-25T05:34:59;99516.25;;;6.93;69.82
32735;BME280;19112;51.076;3.706;2023-03-25T05:37:25;100248.97;;;11.25;69.91
32735;BME280;19112;51.076;3.706;2023-03-25T05:39:51;100039.19;;;10.14;69.60
32735;BME280;19112;51.076;3.706;2023-03-25T05:42:17;100198.84;;;11.15;69.62
32735;BME280;19112;51.076;3.706;2023-03-25T05:44:48;100006.38;;;9.92;69.69
32735;BME280;19112;51.076;3.706;2023-03-25T05:47:23;100149.19;;;10.85;69.87
32735;BME280;19112;51.076;3.706;2023-03-25T05:49:50;100245.81;;;11.43;69.80
32735;BME280;19112;51.076;3.706;2023-03-25T05:52:18;100236.28;;;11.47;69.60
32735;BME280;19112;51.076;3.706;2023-03-25T05:54:45;100036.97;;;10.31;69.39
32735;BME280;19112;51.076;3.706;2023-03-25T05:57:15;100080.31;;;10.54;69.54
32735;BME280;19112;51.076;3.706;2023-03-25T05:59:41;100223.78;;;11.35;69.54
32735;BME280;19112;51.076;3.706;2023-03-25T06:02:12;99474.22;;;7.17;69.13
32735;BME280;19112;51.076;3.706;2023-03-25T06:04:39;100110.34;;;10.67;69.21
32735;BME280;19112;51.076;3.706;2023-03-25T06:07:10;100250.53;;;11.60;69.53
32735;BME280;19112;51.076;3.706;2023-03-25T06:09:45;100099.88;;;10.70;69.39
32735;BME280;19112;51.076;3.706;2023-03-25T06:12:14;100257.53;;;11.61;69.42
32735;BME280;19112;51.076;3.706;2023-03-25T06:14:41;100248.94;;;11.68;69.37
32735;BME280;19112;51.076;3.706;2023-03-25T06:17:14;99977.38;;;10.23;69.04
32735;BME280;19112;51.076;3.706;2023-03-25T06:19:41;100206.59;;;11.54;69.03
32735;BME280;19112;51.076;3.706;2023-03-25T06:22:09;99571.59;;;7.86;68.65
32735;BME280;19112;51.076;3.706;2023-03-25T06:24:37;100187.50;;;11.63;68.63
32735;BME280;19112;51.076;3.706;2023-03-25T06:27:21;100261.16;;;12.11;68.25
32735;BME280;19112;51.076;3.706;2023-03-25T06:29:48;100176.88;;;11.57;68.14
32735;BME280;19112;51.076;3.706;2023-03-25T06:32:14;100000.06;;;10.65;67.93
32735;BME280;19112;51.076;3.706;2023-03-25T06:34:40;100233.69;;;11.95;67.48
32735;BME280;19112;51.076;3.706;2023-03-25T06:37:08;99878.69;;;9.86;67.66
32735;BME280;19112;51.076;3.706;2023-03-25T06:39:34;100253.75;;;11.89;67.69
32735;BME280;19112;51.076;3.706;2023-03-25T06:42:03;100014.19;;;10.72;67.31
32735;BME280;19112;51.076;3.706;2023-03-25T06:44:29;100040.38;;;10.70;67.28
32735;BME280;19112;51.076;3.706;2023-03-25T06:46:56;99872.41;;;9.78;67.20
32735;BME280;19112;51.076;3.706;2023-03-25T06:49:22;100111.31;;;11.17;67.23
32735;BME280;19112;51.076;3.706;2023-03-25T06:51:48;99848.81;;;9.80;67.11
32735;BME280;19112;51.076;3.706;2023-03-25T06:54:14;100025.00;;;10.89;66.89
32735;BME280;19112;51.076;3.706;2023-03-25T06:56:40;100157.53;;;11.54;67.04
32735;BME280;19112;51.076;3.706;2023-03-25T06:59:06;99637.13;;;8.71;66.58
32735;BME280;19112;51.076;3.706;2023-03-25T07:01:32;100253.69;;;12.37;66.67
32735;BME280;19112;51.076;3.706;2023-03-25T07:03:58;100254.56;;;12.36;66.49
32735;BME280;19112;51.076;3.706;2023-03-25T07:06:24;100060.81;;;11.34;66.14
32735;BME280;19112;51.076;3.706;2023-03-25T07:08:50;100088.94;;;11.39;66.31
32735;BME280;19112;51.076;3.706;2023-03-25T07:11:24;99925.59;;;10.60;66.13
32735;BME280;19112;51.076;3.706;2023-03-25T07:13:51;100220.22;;;12.28;66.27
32735;BME280;19112;51.076;3.706;2023-03-25T07:16:22;100257.38;;;12.47;65.89
32735;BME280;19112;51.076;3.706;2023-03-25T07:18:48;100051.81;;;11.19;65.90
32735;BME280;19112;51.076;3.706;2023-03-25T07:21:15;100235.03;;;12.22;66.25
32735;BME280;19112;51.076;3.706;2023-03-25T07:23:41;100312.94;;;12.64;66.84
32735;BME280;19112;51.076;3.706;2023-03-25T07:26:07;99918.25;;;10.41;66.67
32735;BME280;19112;51.076;3.706;2023-03-25T07:28:33;100282.03;;;12.52;66.72
32735;BME280;19112;51.076;3.706;2023-03-25T07:30:59;100316.69;;;12.79;66.31
32735;BME280;19112;51.076;3.706;2023-03-25T07:33:25;100354.53;;;12.86;66.22
32735;BME280;19112;51.076;3.706;2023-03-25T07:35:51;100132.47;;;11.73;66.54
32735;BME280;19112;51.076;3.706;2023-03-25T07:38:17;100050.03;;;11.18;66.87
32735;BME280;19112;51.076;3.706;2023-03-25T07:40:42;100144.66;;;11.68;67.71
32735;BME280;19112;51.076;3.706;2023-03-25T07:43:08;100331.47;;;12.71;68.56
32735;BME280;19112;51.076;3.706;2023-03-25T07:45:34;100256.94;;;12.21;69.15
32735;BME280;19112;51.076;3.706;2023-03-25T07:48:01;99980.72;;;10.60;69.30
32735;BME280;19112;51.076;3.706;2023-03-25T07:50:27;100323.28;;;12.53;69.48
32735;BME280;19112;51.076;3.706;2023-03-25T07:52:53;100061.78;;;10.92;69.27
32735;BME280;19112;51.076;3.706;2023-03-25T07:55:20;100142.25;;;11.32;68.94
32735;BME280;19112;51.076;3.706;2023-03-25T07:57:46;100338.16;;;12.51;69.47
32735;BME280;19112;51.076;3.706;2023-03-25T08:00:12;100219.50;;;11.87;69.50
32735;BME280;19112;51.076;3.706;2023-03-25T08:02:39;100182.34;;;11.70;69.40
32735;BME280;19112;51.076;3.706;2023-03-25T08:05:05;100054.88;;;10.97;69.43
32735;BME280;19112;51.076;3.706;2023-03-25T08:07:32;100335.59;;;12.54;69.45
32735;BME280;19112;51.076;3.706;2023-03-25T08:09:58;99988.84;;;10.75;68.94
32735;BME280;19112;51.076;3.706;2023-03-25T08:12:24;100058.97;;;11.28;69.03
32735;BME280;19112;51.076;3.706;2023-03-25T08:14:50;100355.75;;;13.08;68.56
32735;BME280;19112;51.076;3.706;2023-03-25T08:17:16;100261.06;;;12.61;67.89
32735;BME280;19112;51.076;3.706;2023-03-25T08:19:42;100383.28;;;13.25;67.58
32735;BME280;19112;51.076;3.706;2023-03-25T08:22:07;100311.66;;;12.95;66.73
32735;BME280;19112;51.076;3.706;2023-03-25T08:24:33;100369.06;;;13.16;66.75
32735;BME280;19112;51.076;3.706;2023-03-25T08:26:59;99913.44;;;10.65;66.38
32735;BME280;19112;51.076;3.706;2023-03-25T08:29:26;100199.16;;;12.30;66.00
32735;BME280;19112;51.076;3.706;2023-03-25T08:31:53;100373.81;;;13.40;66.04
32735;BME280;19112;51.076;3.706;2023-03-25T08:34:20;100172.72;;;12.21;65.79
32735;BME280;19112;51.076;3.706;2023-03-25T08:36:47;100347.22;;;13.23;65.87
32735;BME280;19112;51.076;3.706;2023-03-25T08:39:14;100367.81;;;13.51;65.74
32735;BME280;19112;51.076;3.706;2023-03-25T08:41:42;100068.50;;;11.74;65.59
32735;BME280;19112;51.076;3.706;2023-03-25T08:44:09;99860.88;;;10.61;65.36
32735;BME280;19112;51.076;3.706;2023-03-25T08:46:36;100360.50;;;13.29;64.81
32735;BME280;19112;51.076;3.706;2023-03-25T08:49:03;99872.69;;;10.87;64.32
32735;BME280;19112;51.076;3.706;2023-03-25T08:51:29;100388.41;;;13.78;64.20
32735;BME280;19112;51.076;3.706;2023-03-25T08:53:55;100095.38;;;12.10;64.01
32735;BME280;19112;51.076;3.706;2023-03-25T08:56:21;100407.13;;;14.00;63.84
32735;BME280;19112;51.076;3.706;2023-03-25T08:58:46;100276.19;;;13.35;63.39
32735;BME280;19112;51.076;3.706;2023-03-25T09:01:13;100315.22;;;13.62;63.90
32735;BME280;19112;51.076;3.706;2023-03-25T09:03:39;100315.28;;;13.68;64.38
32735;BME280;19112;51.076;3.706;2023-03-25T09:06:07;100385.81;;;13.80;65.00
32735;BME280;19112;51.076;3.706;2023-03-25T09:08:35;100374.31;;;13.76;65.16
32735;BME280;19112;51.076;3.706;2023-03-25T09:11:02;100298.72;;;13.11;65.36
32735;BME280;19112;51.076;3.706;2023-03-25T09:13:29;100392.56;;;13.59;65.32
32735;BME280;19112;51.076;3.706;2023-03-25T09:15:57;100408.69;;;13.84;64.96
32735;BME280;19112;51.076;3.706;2023-03-25T09:18:23;100407.00;;;13.89;64.11
32735;BME280;19112;51.076;3.706;2023-03-25T09:20:49;100133.50;;;12.38;63.78
32735;BME280;19112;51.076;3.706;2023-03-25T09:23:17;100394.66;;;13.85;63.32
32735;BME280;19112;51.076;3.706;2023-03-25T09:25:42;100247.06;;;13.21;62.28
32735;BME280;19112;51.076;3.706;2023-03-25T09:28:09;100133.75;;;12.56;60.85
32735;BME280;19112;51.076;3.706;2023-03-25T09:30:35;100213.44;;;13.05;61.67
32735;BME280;19112;51.076;3.706;2023-03-25T09:33:02;100133.94;;;12.73;60.11
32735;BME280;19112;51.076;3.706;2023-03-25T09:35:28;100334.28;;;14.14;60.39
32735;BME280;19112;51.076;3.706;2023-03-25T09:37:53;100429.13;;;14.79;59.33
32735;BME280;19112;51.076;3.706;2023-03-25T09:40:20;100283.06;;;13.98;58.87
32735;BME280;19112;51.076;3.706;2023-03-25T09:45:50;100363.91;;;14.71;58.82
32735;BME280;19112;51.076;3.706;2023-03-25T09:51:18;100047.03;;;12.73;59.36
32735;BME280;19112;51.076;3.706;2023-03-25T09:56:32;100378.78;;;14.64;60.28
32735;BME280;19112;51.076;3.706;2023-03-25T09:59:08;100262.72;;;13.86;59.16
32735;BME280;19112;51.076;3.706;2023-03-25T10:05:44;100433.72;;;14.16;66.23
32735;BME280;19112;51.076;3.706;2023-03-25T10:11:28;100423.69;;;13.85;67.64
32735;BME280;19112;51.076;3.706;2023-03-25T10:14:06;100419.31;;;13.87;67.19
32735;BME280;19112;51.076;3.706;2023-03-25T10:24:59;100272.00;;;12.87;68.55
32735;BME280;19112;51.076;3.706;2023-03-25T10:27:43;100231.38;;;12.70;69.21
32735;BME280;19112;51.076;3.706;2023-03-25T10:30:26;100452.81;;;13.94;68.13
32735;BME280;19112;51.076;3.706;2023-03-25T10:32:58;100403.22;;;13.69;66.77
32735;BME280;19112;51.076;3.706;2023-03-25T10:35:35;100346.72;;;13.51;65.37
32735;BME280;19112;51.076;3.706;2023-03-25T10:38:20;100192.16;;;12.91;65.02
32735;BME280;19112;51.076;3.706;2023-03-25T10:40:57;100374.09;;;14.37;64.88
32735;BME280;19112;51.076;3.706;2023-03-25T10:43:35;100322.94;;;14.26;64.16
32735;BME280;19112;51.076;3.706;2023-03-25T10:49:20;100390.53;;;14.07;62.82
32735;BME280;19112;51.076;3.706;2023-03-25T10:51:48;100456.78;;;14.30;64.58
32735;BME280;19112;51.076;3.706;2023-03-25T10:54:18;100454.13;;;14.28;65.72
32735;BME280;19112;51.076;3.706;2023-03-25T10:56:51;100075.69;;;12.45;65.82
32735;BME280;19112;51.076;3.706;2023-03-25T10:59:41;100453.66;;;14.63;63.97
32735;BME280;19112;51.076;3.706;2023-03-25T11:02:22;100452.09;;;14.82;63.79
32735;BME280;19112;51.076;3.706;2023-03-25T11:05:01;100437.28;;;15.02;63.72
32735;BME280;19112;51.076;3.706;2023-03-25T11:07:40;100447.72;;;14.90;62.28
32735;BME280;19112;51.076;3.706;2023-03-25T11:12:39;100340.97;;;13.83;64.67
32735;BME280;19112;51.076;3.706;2023-03-25T11:15:35;100408.13;;;14.09;65.66
32735;BME280;19112;51.076;3.706;2023-03-25T11:18:33;100399.13;;;13.92;65.70
32735;BME280;19112;51.076;3.706;2023-03-25T11:21:07;100457.47;;;14.13;66.03
32735;BME280;19112;51.076;3.706;2023-03-25T11:23:46;100182.50;;;12.90;66.01
32735;BME280;19112;51.076;3.706;2023-03-25T11:26:20;100100.00;;;12.27;63.39
32735;BME280;19112;51.076;3.706;2023-03-25T11:28:59;100442.75;;;14.35;63.23
32735;BME280;19112;51.076;3.706;2023-03-25T11:31:28;100073.41;;;12.07;62.58
32735;BME280;19112;51.076;3.706;2023-03-25T11:34:19;100451.88;;;14.60;62.35
32735;BME280;19112;51.076;3.706;2023-03-25T11:39:37;100400.50;;;14.35;59.71
32735;BME280;19112;51.076;3.706;2023-03-25T11:42:26;100373.22;;;14.38;60.16
32735;BME280;19112;51.076;3.706;2023-03-25T11:44:55;100305.28;;;14.22;60.19
32735;BME280;19112;51.076;3.706;2023-03-25T11:47:39;100464.03;;;15.43;59.66
32735;BME280;19112;51.076;3.706;2023-03-25T11:50:06;100412.75;;;15.23;59.48
32735;BME280;19112;51.076;3.706;2023-03-25T11:52:44;100235.91;;;14.33;58.70
32735;BME280;19112;51.076;3.706;2023-03-25T11:55:31;100477.31;;;15.50;58.38
32735;BME280;19112;51.076;3.706;2023-03-25T11:58:01;100335.59;;;14.59;57.46
32735;BME280;19112;51.076;3.706;2023-03-25T12:00:39;100278.00;;;14.20;57.85
32735;BME280;19112;51.076;3.706;2023-03-25T12:05:39;100358.66;;;14.80;57.15
32735;BME280;19112;51.076;3.706;2023-03-25T12:08:16;100409.13;;;15.09;55.86
32735;BME280;19112;51.076;3.706;2023-03-25T12:10:54;100319.88;;;14.73;56.04
32735;BME280;19112;51.076;3.706;2023-03-25T12:13:56;100466.03;;;15.74;56.68
32735;BME280;19112;51.076;3.706;2023-03-25T12:19:46;100481.91;;;15.75;58.27
32735;BME280;19112;51.076;3.706;2023-03-25T12:22:31;100265.94;;;14.48;60.09
32735;BME280;19112;51.076;3.706;2023-03-25T12:25:23;100375.72;;;15.18;59.62
32735;BME280;19112;51.076;3.706;2023-03-25T12:45:53;100492.03;;;16.57;55.94
32735;BME280;19112;51.076;3.706;2023-03-25T12:48:42;100453.09;;;16.36;54.94
32735;BME280;19112;51.076;3.706;2023-03-25T12:53:49;100511.53;;;16.74;53.93
32735;BME280;19112;51.076;3.706;2023-03-25T13:00:03;100507.09;;;16.75;53.26
32735;BME280;19112;51.076;3.706;2023-03-25T13:02:27;100520.38;;;16.78;55.14
32735;BME280;19112;51.076;3.706;2023-03-25T13:05:28;100482.22;;;16.38;55.16
32735;BME280;19112;51.076;3.706;2023-03-25T13:10:39;100444.13;;;16.04;54.59
32735;BME280;19112;51.076;3.706;2023-03-25T13:13:19;100477.78;;;16.29;54.78
32735;BME280;19112;51.076;3.706;2023-03-25T13:16:08;100424.75;;;16.11;53.98
32735;BME280;19112;51.076;3.706;2023-03-25T13:19:19;100438.09;;;16.43;53.59
32735;BME280;19112;51.076;3.706;2023-03-25T13:21:52;99648.06;;;12.02;52.88
32735;BME280;19112;51.076;3.706;2023-03-25T13:24:53;100312.63;;;16.00;51.14
32735;BME280;19112;51.076;3.706;2023-03-25T13:27:20;100234.72;;;15.24;50.62
32735;BME280;19112;51.076;3.706;2023-03-25T13:29:55;100415.09;;;16.27;51.82
32735;BME280;19112;51.076;3.706;2023-03-25T13:32:45;100525.66;;;16.73;51.53
32735;BME280;19112;51.076;3.706;2023-03-25T13:35:44;100500.03;;;16.71;50.20
32735;BME280;19112;51.076;3.706;2023-03-25T13:38:21;100503.56;;;16.76;49.91
32735;BME280;19112;51.076;3.706;2023-03-25T13:43:59;100491.97;;;16.48;50.39
32735;BME280;19112;51.076;3.706;2023-03-25T13:47:31;100492.84;;;16.42;50.37
32735;BME280;19112;51.076;3.706;2023-03-25T13:50:06;100499.09;;;16.66;51.17
32735;BME280;19112;51.076;3.706;2023-03-25T13:52:39;100527.44;;;16.81;52.16
32735;BME280;19112;51.076;3.706;2023-03-25T13:55:17;100375.81;;;15.37;55.50
32735;BME280;19112;51.076;3.706;2023-03-25T14:13:04;100535.78;;;15.77;57.72
32735;BME280;19112;51.076;3.706;2023-03-25T14:15:38;100496.97;;;15.84;56.94
32735;BME280;19112;51.076;3.706;2023-03-25T14:18:16;100494.44;;;16.04;55.75
32735;BME280;19112;51.076;3.706;2023-03-25T14:20:43;100473.28;;;16.04;54.46
32735;BME280;19112;51.076;3.706;2023-03-25T14:23:20;100359.06;;;15.35;54.16
32735;BME280;19112;51.076;3.706;2023-03-25T14:25:55;100314.94;;;15.28;52.90
32735;BME280;19112;51.076;3.706;2023-03-25T14:28:39;100245.91;;;14.79;53.01
32735;BME280;19112;51.076;3.706;2023-03-25T14:44:33;100556.50;;;16.52;52.75
32735;BME280;19112;51.076;3.706;2023-03-25T14:49:51;100545.84;;;16.44;53.49
32735;BME280;19112;51.076;3.706;2023-03-25T14:52:39;100539.59;;;16.27;53.15
32735;BME280;19112;51.076;3.706;2023-03-25T14:55:17;100351.97;;;15.34;53.36
32735;BME280;19112;51.076;3.706;2023-03-25T14:57:43;100271.41;;;14.72;54.39
32735;BME280;19112;51.076;3.706;2023-03-25T15:00:28;100532.63;;;16.52;54.11
32735;BME280;19112;51.076;3.706;2023-03-25T15:03:07;100325.63;;;15.52;53.30
32735;BME280;19112;51.076;3.706;2023-03-25T15:05:36;100427.34;;;16.00;52.88
32735;BME280;19112;51.076;3.706;2023-03-25T15:10:42;100512.31;;;16.60;51.74
32735;BME280;19112;51.076;3.706;2023-03-25T15:13:30;100458.34;;;16.35;52.01
32735;BME280;19112;51.076;3.706;2023-03-25T15:21:22;100082.56;;;14.04;50.79
32735;BME280;19112;51.076;3.706;2023-03-25T15:24:09;100492.81;;;16.30;51.32
32735;BME280;19112;51.076;3.706;2023-03-25T15:26:41;100485.75;;;16.37;51.13
32735;BME280;19112;51.076;3.706;2023-03-25T15:35:35;100582.28;;;16.91;51.22
32735;BME280;19112;51.076;3.706;2023-03-25T15:56:21;100598.94;;;16.67;51.48
32735;BME280;19112;51.076;3.706;2023-03-25T15:59:04;100459.03;;;15.85;51.62
32735;BME280;19112;51.076;3.706;2023-03-25T16:01:34;100343.50;;;14.56;52.02
32735;BME280;19112;51.076;3.706;2023-03-25T16:04:31;100506.44;;;15.53;52.69